Time;durP1;ratioP1;P1;durP2;ratioP2;P2;SDS_P1;SDS_P2;PMS_P1;PMS_P2;Temp;Humidity;BMP_temperature;BMP_pressure;BME280_temperature;BME280_humidity;BME280_pressure;Samples;Min_cycle;Max_cycle;Signal;HPM_P1;HPM_P2
2022/06/14 11:28:26;;;;;;;5.00;3.10;;;18.40;99.90;;;;;;5090903;27;20547;-79
2022/06/14 11:31:06;;;;;;;7.70;2.80;;;18.40;99.90;;;;;;5090895;28;20258;-76
2022/06/14 11:34:02;;;;;;;8.20;3.55;;;18.40;99.90;;;;;;5091157;28;20209;-88
2022/06/14 11:36:45;;;;;;;4.25;3.53;;;18.30;99.90;;;;;;5090801;28;20660;-90
2022/06/14 11:39:24;;;;;;;5.30;4.03;;;18.30;99.90;;;;;;5090782;28;20171;-81
2022/06/14 11:41:51;;;;;;;7.03;3.35;;;18.30;99.90;;;;;;5091097;28;20578;-79
2022/06/14 11:44:46;;;;;;;7.18;2.90;;;18.50;99.90;;;;;;5089417;28;20171;-82
2022/06/14 11:47:16;;;;;;;5.65;3.13;;;18.50;99.90;;;;;;5090532;28;20199;-81
2022/06/14 11:50:05;;;;;;;7.57;3.38;;;18.60;99.90;;;;;;5090591;28;20164;-86
2022/06/14 11:52:55;;;;;;;3.67;2.50;;;18.60;99.90;;;;;;5090469;28;20525;-78
2022/06/14 11:55:47;;;;;;;4.47;3.38;;;18.70;99.90;;;;;;5089140;28;20612;-78
2022/06/14 11:58:50;;;;;;;3.17;2.95;;;18.80;99.90;;;;;;5090402;28;20171;-78
2022/06/14 12:01:31;;;;;;;5.57;3.38;;;18.90;99.90;;;;;;5084397;28;20814;-77
2022/06/14 12:04:27;;;;;;;6.13;3.38;;;19.00;99.90;;;;;;5088981;28;20175;-78
2022/06/14 12:07:01;;;;;;;6.70;2.97;;;19.10;99.90;;;;;;5090109;28;20244;-75
2022/06/14 12:10:00;;;;;;;3.67;2.63;;;19.20;99.90;;;;;;5090181;28;20164;-75
2022/06/14 12:12:52;;;;;;;14.50;3.08;;;19.30;99.90;;;;;;5090011;28;20166;-76
2022/06/14 12:15:33;;;;;;;9.00;3.08;;;19.40;99.90;;;;;;5089977;28;20554;-77
2022/06/14 12:18:01;;;;;;;4.07;3.47;;;19.60;99.90;;;;;;5089844;28;20178;-79
2022/06/14 12:20:29;;;;;;;5.97;3.15;;;19.70;99.90;;;;;;5089889;28;20170;-83
2022/06/14 12:22:58;;;;;;;5.47;3.45;;;19.90;99.90;;;;;;5089822;28;20521;-80
2022/06/14 12:29:18;;;;;;;7.43;3.08;;;20.20;99.90;;;;;;5089682;28;20186;-80
2022/06/14 12:32:22;;;;;;;13.43;5.00;;;20.50;99.90;;;;;;5087475;28;20178;-82
2022/06/14 12:34:58;;;;;;;6.32;2.95;;;20.80;99.90;;;;;;5066949;28;20699;-81
2022/06/14 12:37:52;;;;;;;6.10;2.80;;;21.00;99.90;;;;;;5086252;28;20207;-83
2022/06/14 12:40:43;;;;;;;5.00;2.97;;;21.10;99.90;;;;;;5075944;28;20175;-82
2022/06/14 12:43:32;;;;;;;2.90;2.33;;;21.10;99.90;;;;;;5075893;28;20171;-79
2022/06/14 12:46:09;;;;;;;6.03;3.42;;;20.90;99.90;;;;;;5075384;28;20254;-80
2022/06/14 12:48:53;;;;;;;3.53;3.28;;;20.90;99.90;;;;;;5075891;28;20160;-82
2022/06/14 12:51:45;;;;;;;9.32;3.65;;;20.90;99.90;;;;;;5075849;28;20168;-82
2022/06/14 12:54:56;;;;;;;6.13;3.42;;;20.90;99.90;;;;;;5075853;28;20160;-81
2022/06/14 12:57:49;;;;;;;3.38;3.10;;;21.10;99.90;;;;;;5064731;28;20645;-82
2022/06/14 13:00:48;;;;;;;6.82;2.95;;;21.40;99.90;;;;;;5075719;28;20255;-82
2022/06/14 13:03:48;;;;;;;4.93;3.42;;;21.70;99.90;;;;;;5074410;28;20180;-87
2022/06/14 13:06:38;;;;;;;4.45;3.08;;;21.90;99.90;;;;;;5075546;28;20191;-76
2022/06/14 13:09:10;;;;;;;9.52;4.00;;;22.00;99.90;;;;;;5075542;28;20168;-77
2022/06/14 13:12:07;;;;;;;6.20;2.97;;;22.00;99.90;;;;;;5075528;28;20247;-80
2022/06/14 13:14:59;;;;;;;6.07;3.28;;;22.20;99.90;;;;;;5075801;28;20255;-91
2022/06/14 13:17:46;;;;;;;3.42;3.13;;;22.30;99.90;;;;;;5075924;28;20164;-84
2022/06/14 13:20:44;;;;;;;11.55;3.40;;;22.60;99.90;;;;;;5075354;28;20179;-77
2022/06/14 13:23:18;;;;;;;8.07;3.33;;;22.70;99.90;;;;;;5075320;28;20250;-77
2022/06/14 13:26:02;;;;;;;9.70;3.67;;;22.70;99.90;;;;;;5075257;28;20171;-77
2022/06/14 13:28:49;;;;;;;3.33;2.80;;;22.50;99.90;;;;;;5075217;28;20187;-76
2022/06/14 13:31:27;;;;;;;5.28;3.55;;;22.70;99.90;;;;;;5075426;28;20156;-80
2022/06/14 13:34:34;;;;;;;6.70;3.85;;;22.90;99.90;;;;;;5075122;28;20625;-81
2022/06/14 13:37:30;;;;;;;5.18;3.33;;;23.10;99.90;;;;;;5074561;28;20214;-80
2022/06/14 13:40:02;;;;;;;7.38;2.22;;;23.40;99.90;;;;;;5074957;28;20575;-81
2022/06/14 13:42:41;;;;;;;6.38;3.60;;;23.50;99.90;;;;;;5073532;28;20176;-84
2022/06/14 13:45:27;;;;;;;5.25;2.75;;;23.80;99.90;;;;;;5074864;28;20177;-84
2022/06/14 13:47:59;;;;;;;6.63;2.80;;;23.90;99.90;;;;;;5074657;28;20204;-83
2022/06/14 13:51:03;;;;;;;5.75;2.90;;;24.10;99.90;;;;;;5073803;28;20211;-83
2022/06/14 13:53:39;;;;;;;5.15;2.35;;;24.10;99.90;;;;;;5074037;28;20175;-84
2022/06/14 13:56:04;;;;;;;5.30;2.90;;;24.30;99.90;;;;;;5074538;28;20254;-83
2022/06/14 13:58:58;;;;;;;3.42;2.80;;;24.50;99.90;;;;;;5074584;28;20246;-83
2022/06/14 14:01:49;;;;;;;3.78;2.83;;;24.70;99.90;;;;;;5074585;28;20175;-86
2022/06/14 14:04:50;;;;;;;9.98;2.72;;;24.70;99.90;;;;;;5074454;28;20235;-86
2022/06/14 14:07:26;;;;;;;5.18;2.63;;;24.70;99.90;;;;;;5074344;28;20199;-79
2022/06/14 14:10:04;;;;;;;3.25;2.78;;;25.00;99.90;;;;;;5074479;28;20246;-74
2022/06/14 14:12:38;;;;;;;4.60;2.72;;;25.10;99.90;;;;;;5074311;28;20185;-67
2022/06/14 14:15:23;;;;;;;6.43;2.97;;;25.30;99.90;;;;;;5074284;28;20521;-67
2022/06/14 14:17:56;;;;;;;4.43;3.08;;;25.40;99.90;;;;;;5072859;28;20168;-67
2022/06/14 14:20:55;;;;;;;6.72;2.88;;;25.50;99.90;;;;;;5074205;28;20613;-78
2022/06/14 14:23:39;;;;;;;4.85;2.75;;;25.60;99.90;;;;;;5074143;28;20168;-78
2022/06/14 14:26:14;;;;;;;3.25;2.10;;;25.70;99.90;;;;;;5072563;28;20191;-83
2022/06/14 14:28:44;;;;;;;4.88;2.70;;;26.00;99.90;;;;;;5072848;28;20171;-82
2022/06/14 14:31:33;;;;;;;6.07;3.08;;;26.20;99.90;;;;;;5073973;28;20171;-83
2022/06/14 14:34:24;;;;;;;6.40;2.30;;;26.20;99.90;;;;;;5073942;28;20622;-83
2022/06/14 14:37:10;;;;;;;5.80;3.03;;;26.40;99.90;;;;;;5073700;28;20196;-83
2022/06/14 14:39:59;;;;;;;3.97;2.72;;;26.30;99.90;;;;;;5073803;28;20172;-80
2022/06/14 14:42:33;;;;;;;3.60;3.00;;;26.20;99.90;;;;;;5073999;28;20172;-80
2022/06/14 14:45:21;;;;;;;4.88;2.70;;;26.00;99.90;;;;;;5073679;28;20171;-79
2022/06/14 14:48:01;;;;;;;6.15;2.33;;;26.00;99.90;;;;;;5073618;28;20286;-78
2022/06/14 14:50:48;;;;;;;3.85;2.53;;;26.20;99.90;;;;;;5073658;28;20242;-77
2022/06/14 14:53:40;;;;;;;5.15;2.33;;;26.40;99.90;;;;;;5073531;28;20174;-77
2022/06/14 14:56:24;;;;;;;3.45;2.10;;;26.50;99.90;;;;;;5073616;28;20164;-77
2022/06/14 14:58:57;;;;;;;7.93;2.53;;;26.50;99.90;;;;;;5073440;28;20174;-77
2022/06/14 15:07:28;;;;;;;5.40;2.25;;;26.20;99.90;;;;;;5073530;28;20202;-76
2022/06/14 15:10:22;;;;;;;5.72;2.20;;;25.50;99.90;;;;;;5072213;28;20620;-76
2022/06/14 15:12:56;;;;;;;6.60;3.17;;;25.30;99.90;;;;;;5071224;28;20175;-84
2022/06/14 15:15:38;;;;;;;5.65;2.65;;;25.20;99.90;;;;;;5072100;28;20168;-86
2022/06/14 15:21:20;;;;;;;8.82;2.45;;;25.30;99.90;;;;;;5073365;28;20216;-86
2022/06/14 15:23:51;;;;;;;5.95;3.33;;;25.60;99.90;;;;;;5073493;28;20525;-90
2022/06/14 15:26:19;;;;;;;8.10;4.28;;;25.60;99.90;;;;;;5071954;28;20215;-87
2022/06/14 15:28:46;;;;;;;6.68;4.97;;;25.70;99.90;;;;;;5073346;28;20168;-85
2022/06/14 15:31:24;;;;;;;4.95;2.85;;;25.70;99.90;;;;;;5073224;28;20160;-77
2022/06/14 15:33:51;;;;;;;5.35;3.08;;;25.80;99.90;;;;;;5073160;28;20178;-80
2022/06/14 15:36:33;;;;;;;17.02;3.53;;;25.90;99.90;;;;;;5073121;28;20223;-79
2022/06/14 15:39:19;;;;;;;8.85;3.00;;;25.70;99.90;;;;;;5073173;28;20164;-82
2022/06/14 15:41:45;;;;;;;2.95;2.42;;;25.80;99.90;;;;;;5071855;28;20258;-79
2022/06/14 15:44:15;;;;;;;4.60;2.65;;;26.10;99.90;;;;;;5073082;28;20624;-81
2022/06/14 15:47:10;;;;;;;4.63;2.40;;;26.00;99.90;;;;;;5072874;28;20196;-81
2022/06/14 15:49:48;;;;;;;4.90;2.72;;;25.80;99.90;;;;;;5067080;28;20568;-78
2022/06/14 15:52:16;;;;;;;8.60;3.55;;;26.20;99.90;;;;;;5072748;28;20217;-81
2022/06/14 15:54:43;;;;;;;3.20;2.78;;;26.70;99.90;;;;;;5072700;28;20691;-80
2022/06/14 15:57:26;;;;;;;6.65;3.50;;;27.10;99.90;;;;;;5072828;28;20183;-77
2022/06/14 16:00:13;;;;;;;7.60;2.38;;;27.40;99.90;;;;;;5072980;28;20160;-77
2022/06/14 16:02:59;;;;;;;4.10;2.47;;;27.60;99.90;;;;;;5072882;28;20237;-78
2022/06/14 16:05:31;;;;;;;5.80;2.63;;;27.70;99.90;;;;;;5072815;28;20203;-78
2022/06/14 16:08:04;;;;;;;6.03;2.65;;;27.70;99.90;;;;;;5072611;28;20223;-77
2022/06/14 16:10:50;;;;;;;5.82;2.42;;;27.70;99.90;;;;;;5072701;28;20179;-78
2022/06/14 16:13:45;;;;;;;6.43;2.30;;;27.50;99.90;;;;;;5073362;28;20164;-77
2022/06/14 16:16:25;;;;;;;4.78;2.83;;;27.30;99.90;;;;;;5074981;28;20217;-78
2022/06/14 16:18:52;;;;;;;5.47;2.80;;;26.80;99.90;;;;;;5076388;28;20169;-80
2022/06/14 16:21:24;;;;;;;4.30;2.67;;;26.50;99.90;;;;;;5076313;28;20194;-78
2022/06/14 16:23:51;;;;;;;5.70;2.67;;;26.30;99.90;;;;;;5076114;28;20168;-80
2022/06/14 16:26:25;;;;;;;4.63;3.25;;;26.20;99.90;;;;;;5076115;28;20246;-76
2022/06/14 16:29:36;;;;;;;6.55;2.75;;;25.90;99.90;;;;;;5076386;28;20266;-74
2022/06/14 16:32:11;;;;;;;4.25;2.88;;;26.00;99.90;;;;;;5075053;28;20168;-74
2022/06/14 16:34:49;;;;;;;6.28;2.47;;;26.50;99.90;;;;;;5076295;28;20305;-74
2022/06/14 16:37:24;;;;;;;6.05;2.40;;;26.70;99.90;;;;;;5076119;28;20758;-74
2022/06/14 16:39:55;;;;;;;8.38;2.97;;;26.90;99.90;;;;;;5074866;28;20183;-74
2022/06/14 16:42:53;;;;;;;4.00;2.33;;;26.90;99.90;;;;;;5075982;28;20172;-74
2022/06/14 16:45:47;;;;;;;7.70;2.78;;;26.60;99.90;;;;;;5074691;28;20176;-74
2022/06/14 16:48:44;;;;;;;4.65;2.63;;;26.50;99.90;;;;;;5075926;28;20199;-74
2022/06/14 16:51:28;;;;;;;7.75;2.65;;;26.70;99.90;;;;;;5075932;28;20171;-74
2022/06/14 16:54:31;;;;;;;6.80;3.25;;;26.80;99.90;;;;;;5075895;28;20246;-74
2022/06/14 16:57:05;;;;;;;6.65;2.75;;;26.80;99.90;;;;;;5075866;28;20167;-74
2022/06/14 16:59:59;;;;;;;8.27;3.28;;;26.90;99.90;;;;;;5075820;28;20257;-74
2022/06/14 17:03:08;;;;;;;4.82;2.50;;;27.10;99.90;;;;;;5074420;28;20526;-74
2022/06/14 17:06:00;;;;;;;5.53;2.88;;;27.10;99.90;;;;;;5075602;28;20617;-74
2022/06/14 17:08:29;;;;;;;7.47;3.50;;;26.90;99.90;;;;;;5064483;28;20562;-74
2022/06/14 17:11:10;;;;;;;3.03;2.60;;;26.50;99.90;;;;;;5074159;28;20621;-74
2022/06/14 17:13:49;;;;;;;6.45;2.70;;;26.50;99.90;;;;;;5075374;28;20168;-75
2022/06/14 17:16:30;;;;;;;7.57;3.72;;;26.60;99.90;;;;;;5075438;28;20167;-74
2022/06/14 17:19:16;;;;;;;5.60;2.60;;;26.70;99.90;;;;;;5075359;28;20644;-74
2022/06/14 17:30:54;;;;;;;7.97;3.22;;;26.80;99.90;;;;;;5075221;28;20281;-77
2022/06/14 17:33:25;;;;;;;6.18;3.20;;;26.70;99.90;;;;;;5075147;28;20172;-77
2022/06/14 17:35:54;;;;;;;5.38;3.70;;;26.80;99.90;;;;;;5074885;28;20172;-77
2022/06/14 17:38:46;;;;;;;5.05;3.75;;;26.80;99.90;;;;;;5073657;28;20211;-77
2022/06/14 17:41:26;;;;;;;5.80;3.33;;;26.80;99.90;;;;;;5073928;28;20644;-77
2022/06/14 17:44:05;;;;;;;12.48;3.05;;;26.70;99.90;;;;;;5074921;28;20167;-77
2022/06/14 17:46:35;;;;;;;7.82;3.10;;;26.60;99.90;;;;;;5074835;28;20190;-77
2022/06/14 17:49:13;;;;;;;6.20;2.97;;;26.40;99.90;;;;;;5074891;28;20170;-77
2022/06/14 17:51:58;;;;;;;3.58;3.13;;;26.40;99.90;;;;;;5074583;28;20168;-77
2022/06/14 17:54:51;;;;;;;4.13;3.33;;;26.30;99.90;;;;;;5074699;28;20214;-77
2022/06/14 17:57:45;;;;;;;6.38;3.60;;;26.30;99.90;;;;;;5074570;28;20200;-77
2022/06/14 18:00:39;;;;;;;6.63;3.30;;;26.20;99.90;;;;;;5074647;28;20168;-77
2022/06/14 18:03:08;;;;;;;9.45;3.78;;;26.10;99.90;;;;;;5074615;28;20164;-77
2022/06/14 18:05:37;;;;;;;6.10;3.13;;;26.00;99.90;;;;;;5073250;28;20275;-77
2022/06/14 18:08:14;;;;;;;8.35;3.80;;;26.00;99.90;;;;;;5074342;28;20172;-77
2022/06/14 18:10:56;;;;;;;4.80;3.30;;;25.90;99.90;;;;;;5074372;28;20625;-77
2022/06/14 18:13:21;;;;;;;4.93;3.15;;;25.80;99.90;;;;;;5074182;28;20578;-77
2022/06/14 18:15:50;;;;;;;9.55;3.38;;;25.70;99.90;;;;;;5072902;28;20175;-77
2022/06/14 18:18:37;;;;;;;5.35;3.60;;;25.50;99.90;;;;;;5073963;28;20191;-77
2022/06/14 18:21:29;;;;;;;3.55;3.25;;;25.40;99.90;;;;;;5074114;28;20167;-77
2022/06/14 18:24:01;;;;;;;6.85;3.78;;;25.20;99.90;;;;;;5073634;28;20190;-77
2022/06/14 18:26:36;;;;;;;5.75;3.60;;;25.20;99.90;;;;;;5073802;28;20250;-77
2022/06/14 18:29:22;;;;;;;6.07;3.47;;;25.10;99.90;;;;;;5073898;28;20176;-77
2022/06/14 18:31:57;;;;;;;6.55;3.42;;;25.00;99.90;;;;;;5072666;28;20593;-77
2022/06/14 18:34:36;;;;;;;6.50;4.97;;;25.10;99.90;;;;;;5073794;28;20190;-77
2022/06/14 18:37:20;;;;;;;8.80;3.65;;;25.10;99.90;;;;;;5071683;28;20668;-77
2022/06/14 18:40:09;;;;;;;3.83;3.22;;;25.20;99.90;;;;;;5072421;28;20254;-77
2022/06/14 18:42:37;;;;;;;4.70;3.33;;;25.20;99.90;;;;;;5073621;28;20170;-77
2022/06/14 18:45:12;;;;;;;8.82;3.75;;;25.00;99.90;;;;;;5073643;28;20239;-77
2022/06/14 18:48:03;;;;;;;15.10;3.88;;;25.00;99.90;;;;;;5073523;28;20509;-77
2022/06/14 18:50:35;;;;;;;8.60;3.45;;;25.10;99.90;;;;;;5072435;28;20644;-77
2022/06/14 18:53:01;;;;;;;5.88;3.53;;;24.90;99.90;;;;;;5073557;28;20179;-77
2022/06/14 18:55:36;;;;;;;8.20;3.30;;;24.80;99.90;;;;;;5073538;28;20164;-82
2022/06/14 18:58:11;;;;;;;6.93;3.75;;;24.80;99.90;;;;;;5073398;28;20202;-77
2022/06/14 19:00:40;;;;;;;8.25;3.00;;;24.70;99.90;;;;;;5073505;28;20167;-78
2022/06/14 19:03:21;;;;;;;6.13;3.30;;;24.60;99.90;;;;;;5072188;28;20168;-78
2022/06/14 19:05:49;;;;;;;3.35;3.08;;;24.60;99.90;;;;;;5073416;28;20164;-78
2022/06/14 19:08:26;;;;;;;7.43;3.08;;;24.50;99.90;;;;;;5073337;28;20168;-78
2022/06/14 19:11:10;;;;;;;5.82;2.67;;;24.30;99.90;;;;;;5073278;28;20576;-78
2022/06/14 19:13:44;;;;;;;5.30;3.58;;;24.00;99.90;;;;;;5073237;28;20238;-78
2022/06/14 19:16:15;;;;;;;4.45;3.45;;;23.60;99.90;;;;;;5073124;28;20392;-78
2022/06/14 19:18:52;;;;;;;6.80;3.00;;;23.20;99.90;;;;;;5071937;28;20200;-77
2022/06/14 19:21:28;;;;;;;4.97;3.58;;;22.80;99.90;;;;;;5073225;28;20258;-77
2022/06/14 19:24:11;;;;;;;9.43;3.50;;;22.50;99.90;;;;;;5073305;28;20171;-77
2022/06/14 19:27:02;;;;;;;9.75;3.60;;;22.20;99.90;;;;;;5072920;28;20250;-77
